sensor_id;sensor_type;location;lat;lon;timestamp;P1;durP1;ratioP1;P2;durP2;ratioP2
34711;SDS011;20941;42.408;25.634;2024-02-15T00:01:26;9.43;;;5.60;;
34711;SDS011;20941;42.408;25.634;2024-02-15T00:03:51;11.10;;;6.53;;
34711;SDS011;20941;42.408;25.634;2024-02-15T00:06:17;13.02;;;5.82;;
34711;SDS011;20941;42.408;25.634;2024-02-15T00:08:42;9.85;;;5.15;;
34711;SDS011;20941;42.408;25.634;2024-02-15T00:11:07;14.38;;;6.25;;
34711;SDS011;20941;42.408;25.634;2024-02-15T00:13:34;13.15;;;6.18;;
34711;SDS011;20941;42.408;25.634;2024-02-15T00:16:01;12.25;;;6.75;;
34711;SDS011;20941;42.408;25.634;2024-02-15T00:18:26;13.70;;;8.27;;
34711;SDS011;20941;42.408;25.634;2024-02-15T00:20:52;16.00;;;7.68;;
34711;SDS011;20941;42.408;25.634;2024-02-15T00:23:17;17.90;;;8.30;;
34711;SDS011;20941;42.408;25.634;2024-02-15T00:25:43;18.73;;;8.43;;
34711;SDS011;20941;42.408;25.634;2024-02-15T00:28:10;18.33;;;8.45;;
34711;SDS011;20941;42.408;25.634;2024-02-15T00:30:36;15.07;;;8.23;;
34711;SDS011;20941;42.408;25.634;2024-02-15T00:33:02;17.30;;;8.32;;
34711;SDS011;20941;42.408;25.634;2024-02-15T00:35:28;15.48;;;8.10;;
34711;SDS011;20941;42.408;25.634;2024-02-15T00:37:53;12.85;;;7.78;;
34711;SDS011;20941;42.408;25.634;2024-02-15T00:40:18;15.30;;;7.55;;
34711;SDS011;20941;42.408;25.634;2024-02-15T00:42:44;12.60;;;7.57;;
34711;SDS011;20941;42.408;25.634;2024-02-15T00:45:10;14.02;;;7.97;;
34711;SDS011;20941;42.408;25.634;2024-02-15T00:47:38;20.70;;;8.43;;
34711;SDS011;20941;42.408;25.634;2024-02-15T00:50:05;12.68;;;7.20;;
34711;SDS011;20941;42.408;25.634;2024-02-15T00:52:31;13.57;;;7.22;;
34711;SDS011;20941;42.408;25.634;2024-02-15T00:54:56;13.48;;;7.05;;
34711;SDS011;20941;42.408;25.634;2024-02-15T00:57:22;11.73;;;7.05;;
34711;SDS011;20941;42.408;25.634;2024-02-15T00:59:47;12.57;;;7.20;;
34711;SDS011;20941;42.408;25.634;2024-02-15T01:02:13;11.57;;;7.25;;
34711;SDS011;20941;42.408;25.634;2024-02-15T01:04:38;11.38;;;6.43;;
34711;SDS011;20941;42.408;25.634;2024-02-15T01:07:03;10.63;;;6.53;;
34711;SDS011;20941;42.408;25.634;2024-02-15T01:09:29;12.57;;;6.95;;
34711;SDS011;20941;42.408;25.634;2024-02-15T01:11:54;12.68;;;7.32;;
34711;SDS011;20941;42.408;25.634;2024-02-15T01:14:20;11.32;;;6.50;;
34711;SDS011;20941;42.408;25.634;2024-02-15T01:16:45;13.65;;;6.85;;
34711;SDS011;20941;42.408;25.634;2024-02-15T01:19:11;13.30;;;7.28;;
34711;SDS011;20941;42.408;25.634;2024-02-15T01:21:37;14.43;;;6.45;;
34711;SDS011;20941;42.408;25.634;2024-02-15T01:24:02;12.02;;;6.72;;
34711;SDS011;20941;42.408;25.634;2024-02-15T01:26:32;12.02;;;7.63;;
34711;SDS011;20941;42.408;25.634;2024-02-15T01:28:57;12.77;;;7.20;;
34711;SDS011;20941;42.408;25.634;2024-02-15T01:31:22;14.05;;;7.00;;
34711;SDS011;20941;42.408;25.634;2024-02-15T01:33:48;13.10;;;7.55;;
34711;SDS011;20941;42.408;25.634;2024-02-15T01:36:16;13.23;;;7.10;;
34711;SDS011;20941;42.408;25.634;2024-02-15T01:38:42;10.75;;;6.78;;
34711;SDS011;20941;42.408;25.634;2024-02-15T01:41:08;13.95;;;6.40;;
34711;SDS011;20941;42.408;25.634;2024-02-15T01:43:34;11.55;;;6.85;;
34711;SDS011;20941;42.408;25.634;2024-02-15T01:46:00;13.02;;;7.22;;
34711;SDS011;20941;42.408;25.634;2024-02-15T01:48:29;14.40;;;8.70;;
34711;SDS011;20941;42.408;25.634;2024-02-15T01:50:55;15.20;;;8.38;;
34711;SDS011;20941;42.408;25.634;2024-02-15T01:53:21;15.13;;;8.07;;
34711;SDS011;20941;42.408;25.634;2024-02-15T01:55:46;13.90;;;7.50;;
34711;SDS011;20941;42.408;25.634;2024-02-15T01:58:11;25.38;;;15.02;;
34711;SDS011;20941;42.408;25.634;2024-02-15T02:00:37;27.13;;;15.02;;
34711;SDS011;20941;42.408;25.634;2024-02-15T02:03:04;13.90;;;8.10;;
34711;SDS011;20941;42.408;25.634;2024-02-15T02:05:30;15.68;;;7.82;;
34711;SDS011;20941;42.408;25.634;2024-02-15T02:07:56;15.88;;;7.72;;
34711;SDS011;20941;42.408;25.634;2024-02-15T02:10:25;20.85;;;7.38;;
34711;SDS011;20941;42.408;25.634;2024-02-15T02:12:53;12.07;;;5.82;;
34711;SDS011;20941;42.408;25.634;2024-02-15T02:15:18;12.57;;;6.13;;
34711;SDS011;20941;42.408;25.634;2024-02-15T02:17:48;12.60;;;5.72;;
34711;SDS011;20941;42.408;25.634;2024-02-15T02:20:13;42.30;;;10.07;;
34711;SDS011;20941;42.408;25.634;2024-02-15T02:22:39;47.20;;;11.65;;
34711;SDS011;20941;42.408;25.634;2024-02-15T02:25:06;28.27;;;8.70;;
34711;SDS011;20941;42.408;25.634;2024-02-15T02:27:33;22.98;;;6.80;;
34711;SDS011;20941;42.408;25.634;2024-02-15T02:29:59;10.32;;;5.28;;
34711;SDS011;20941;42.408;25.634;2024-02-15T02:32:32;10.75;;;5.72;;
34711;SDS011;20941;42.408;25.634;2024-02-15T02:34:59;13.82;;;5.43;;
34711;SDS011;20941;42.408;25.634;2024-02-15T02:37:25;9.25;;;5.20;;
34711;SDS011;20941;42.408;25.634;2024-02-15T02:39:51;8.40;;;5.70;;
34711;SDS011;20941;42.408;25.634;2024-02-15T02:42:16;12.32;;;6.20;;
34711;SDS011;20941;42.408;25.634;2024-02-15T02:44:42;9.82;;;5.68;;
34711;SDS011;20941;42.408;25.634;2024-02-15T02:47:07;13.65;;;6.55;;
34711;SDS011;20941;42.408;25.634;2024-02-15T02:49:34;11.10;;;5.68;;
34711;SDS011;20941;42.408;25.634;2024-02-15T02:52:00;12.57;;;6.15;;
34711;SDS011;20941;42.408;25.634;2024-02-15T02:54:25;12.48;;;6.13;;
34711;SDS011;20941;42.408;25.634;2024-02-15T02:56:51;8.63;;;5.78;;
34711;SDS011;20941;42.408;25.634;2024-02-15T02:59:16;17.83;;;7.68;;
34711;SDS011;20941;42.408;25.634;2024-02-15T03:01:41;14.98;;;8.00;;
34711;SDS011;20941;42.408;25.634;2024-02-15T03:04:07;18.15;;;8.27;;
34711;SDS011;20941;42.408;25.634;2024-02-15T03:06:33;17.58;;;7.75;;
34711;SDS011;20941;42.408;25.634;2024-02-15T03:08:59;16.83;;;8.48;;
34711;SDS011;20941;42.408;25.634;2024-02-15T03:11:24;16.92;;;8.48;;
34711;SDS011;20941;42.408;25.634;2024-02-15T03:13:49;16.17;;;8.23;;
34711;SDS011;20941;42.408;25.634;2024-02-15T03:16:15;12.75;;;8.30;;
34711;SDS011;20941;42.408;25.634;2024-02-15T03:18:41;17.55;;;8.90;;
34711;SDS011;20941;42.408;25.634;2024-02-15T03:21:07;17.70;;;8.75;;
34711;SDS011;20941;42.408;25.634;2024-02-15T03:23:36;20.50;;;9.10;;
34711;SDS011;20941;42.408;25.634;2024-02-15T03:26:02;14.80;;;8.75;;
34711;SDS011;20941;42.408;25.634;2024-02-15T03:28:28;18.33;;;9.52;;
34711;SDS011;20941;42.408;25.634;2024-02-15T03:30:54;17.42;;;9.23;;
34711;SDS011;20941;42.408;25.634;2024-02-15T03:33:20;17.77;;;8.82;;
34711;SDS011;20941;42.408;25.634;2024-02-15T03:35:51;15.23;;;8.05;;
34711;SDS011;20941;42.408;25.634;2024-02-15T03:38:17;17.77;;;8.15;;
34711;SDS011;20941;42.408;25.634;2024-02-15T03:40:42;14.48;;;8.50;;
34711;SDS011;20941;42.408;25.634;2024-02-15T03:43:08;18.05;;;8.40;;
34711;SDS011;20941;42.408;25.634;2024-02-15T03:45:34;15.77;;;7.82;;
34711;SDS011;20941;42.408;25.634;2024-02-15T03:48:00;13.85;;;8.15;;
34711;SDS011;20941;42.408;25.634;2024-02-15T03:50:25;14.27;;;8.38;;
34711;SDS011;20941;42.408;25.634;2024-02-15T03:52:51;18.73;;;7.43;;
34711;SDS011;20941;42.408;25.634;2024-02-15T03:55:16;14.30;;;7.43;;
34711;SDS011;20941;42.408;25.634;2024-02-15T03:57:41;27.50;;;8.20;;
34711;SDS011;20941;42.408;25.634;2024-02-15T04:00:11;15.60;;;7.40;;
34711;SDS011;20941;42.408;25.634;2024-02-15T04:02:38;15.65;;;7.97;;
34711;SDS011;20941;42.408;25.634;2024-02-15T04:05:05;16.10;;;8.38;;
34711;SDS011;20941;42.408;25.634;2024-02-15T04:07:32;14.88;;;8.00;;
34711;SDS011;20941;42.408;25.634;2024-02-15T04:09:58;16.55;;;7.45;;
34711;SDS011;20941;42.408;25.634;2024-02-15T04:12:40;19.98;;;8.75;;
34711;SDS011;20941;42.408;25.634;2024-02-15T04:15:07;18.05;;;8.57;;
34711;SDS011;20941;42.408;25.634;2024-02-15T04:17:37;35.22;;;9.88;;
34711;SDS011;20941;42.408;25.634;2024-02-15T04:20:02;21.05;;;8.82;;
34711;SDS011;20941;42.408;25.634;2024-02-15T04:22:29;22.98;;;7.82;;
34711;SDS011;20941;42.408;25.634;2024-02-15T04:24:56;13.20;;;7.70;;
34711;SDS011;20941;42.408;25.634;2024-02-15T04:27:22;21.60;;;8.57;;
34711;SDS011;20941;42.408;25.634;2024-02-15T04:29:47;14.30;;;7.72;;
34711;SDS011;20941;42.408;25.634;2024-02-15T04:32:13;14.52;;;7.03;;
34711;SDS011;20941;42.408;25.634;2024-02-15T04:34:38;14.70;;;7.15;;
34711;SDS011;20941;42.408;25.634;2024-02-15T04:37:04;18.23;;;7.75;;
34711;SDS011;20941;42.408;25.634;2024-02-15T04:39:33;16.77;;;7.93;;
34711;SDS011;20941;42.408;25.634;2024-02-15T04:41:58;24.42;;;8.70;;
34711;SDS011;20941;42.408;25.634;2024-02-15T04:44:25;21.92;;;9.38;;
34711;SDS011;20941;42.408;25.634;2024-02-15T04:46:52;20.10;;;9.63;;
34711;SDS011;20941;42.408;25.634;2024-02-15T04:49:18;23.70;;;10.18;;
34711;SDS011;20941;42.408;25.634;2024-02-15T04:51:44;18.00;;;7.88;;
34711;SDS011;20941;42.408;25.634;2024-02-15T04:54:09;17.85;;;8.35;;
34711;SDS011;20941;42.408;25.634;2024-02-15T04:56:38;21.85;;;9.35;;
34711;SDS011;20941;42.408;25.634;2024-02-15T04:59:04;19.52;;;9.65;;
34711;SDS011;20941;42.408;25.634;2024-02-15T05:01:33;20.13;;;9.60;;
34711;SDS011;20941;42.408;25.634;2024-02-15T05:03:59;21.25;;;10.05;;
34711;SDS011;20941;42.408;25.634;2024-02-15T05:06:24;25.00;;;8.63;;
34711;SDS011;20941;42.408;25.634;2024-02-15T05:08:54;20.58;;;9.68;;
34711;SDS011;20941;42.408;25.634;2024-02-15T05:11:21;30.63;;;11.15;;
34711;SDS011;20941;42.408;25.634;2024-02-15T05:13:47;36.40;;;11.30;;
34711;SDS011;20941;42.408;25.634;2024-02-15T05:16:16;28.30;;;10.35;;
34711;SDS011;20941;42.408;25.634;2024-02-15T05:18:41;28.58;;;9.95;;
34711;SDS011;20941;42.408;25.634;2024-02-15T05:21:07;22.60;;;10.63;;
34711;SDS011;20941;42.408;25.634;2024-02-15T05:23:35;21.23;;;10.38;;
34711;SDS011;20941;42.408;25.634;2024-02-15T05:26:01;18.50;;;9.70;;
34711;SDS011;20941;42.408;25.634;2024-02-15T05:28:28;21.13;;;9.13;;
34711;SDS011;20941;42.408;25.634;2024-02-15T05:31:15;42.40;;;18.77;;
34711;SDS011;20941;42.408;25.634;2024-02-15T05:33:45;31.08;;;15.98;;
34711;SDS011;20941;42.408;25.634;2024-02-15T05:36:15;32.13;;;14.93;;
34711;SDS011;20941;42.408;25.634;2024-02-15T05:38:41;30.52;;;14.60;;
34711;SDS011;20941;42.408;25.634;2024-02-15T05:41:07;44.40;;;17.00;;
34711;SDS011;20941;42.408;25.634;2024-02-15T05:43:36;36.03;;;15.57;;
34711;SDS011;20941;42.408;25.634;2024-02-15T05:46:04;32.78;;;14.40;;
34711;SDS011;20941;42.408;25.634;2024-02-15T05:48:32;36.40;;;14.02;;
34711;SDS011;20941;42.408;25.634;2024-02-15T05:51:00;40.10;;;15.35;;
34711;SDS011;20941;42.408;25.634;2024-02-15T05:53:25;38.72;;;16.30;;
34711;SDS011;20941;42.408;25.634;2024-02-15T05:55:51;36.53;;;16.52;;
34711;SDS011;20941;42.408;25.634;2024-02-15T05:58:17;33.45;;;16.33;;
34711;SDS011;20941;42.408;25.634;2024-02-15T06:00:42;29.48;;;15.25;;
34711;SDS011;20941;42.408;25.634;2024-02-15T06:03:10;32.33;;;17.88;;
34711;SDS011;20941;42.408;25.634;2024-02-15T06:05:36;51.83;;;23.60;;
34711;SDS011;20941;42.408;25.634;2024-02-15T06:08:02;32.72;;;16.85;;
34711;SDS011;20941;42.408;25.634;2024-02-15T06:10:27;30.85;;;15.82;;
34711;SDS011;20941;42.408;25.634;2024-02-15T06:12:54;31.27;;;16.73;;
34711;SDS011;20941;42.408;25.634;2024-02-15T06:15:20;43.80;;;19.10;;
34711;SDS011;20941;42.408;25.634;2024-02-15T06:17:46;46.63;;;19.48;;
34711;SDS011;20941;42.408;25.634;2024-02-15T06:20:12;42.67;;;18.23;;
34711;SDS011;20941;42.408;25.634;2024-02-15T06:22:39;32.28;;;15.25;;
34711;SDS011;20941;42.408;25.634;2024-02-15T06:25:04;28.65;;;15.55;;
34711;SDS011;20941;42.408;25.634;2024-02-15T06:27:31;42.75;;;15.18;;
34711;SDS011;20941;42.408;25.634;2024-02-15T06:29:57;41.75;;;15.63;;
34711;SDS011;20941;42.408;25.634;2024-02-15T06:32:41;51.53;;;16.52;;
34711;SDS011;20941;42.408;25.634;2024-02-15T06:35:33;54.67;;;17.50;;
34711;SDS011;20941;42.408;25.634;2024-02-15T06:38:16;66.78;;;18.50;;
34711;SDS011;20941;42.408;25.634;2024-02-15T06:41:01;65.80;;;16.20;;
34711;SDS011;20941;42.408;25.634;2024-02-15T06:43:26;53.45;;;15.48;;
34711;SDS011;20941;42.408;25.634;2024-02-15T06:45:52;50.63;;;15.68;;
34711;SDS011;20941;42.408;25.634;2024-02-15T06:48:17;41.75;;;12.93;;
34711;SDS011;20941;42.408;25.634;2024-02-15T06:50:47;52.83;;;12.98;;
34711;SDS011;20941;42.408;25.634;2024-02-15T06:53:29;35.47;;;9.85;;
34711;SDS011;20941;42.408;25.634;2024-02-15T06:55:55;29.23;;;10.23;;
34711;SDS011;20941;42.408;25.634;2024-02-15T06:58:21;27.98;;;11.27;;
34711;SDS011;20941;42.408;25.634;2024-02-15T07:00:47;34.53;;;12.85;;
34711;SDS011;20941;42.408;25.634;2024-02-15T07:03:13;27.90;;;12.23;;
34711;SDS011;20941;42.408;25.634;2024-02-15T07:05:39;34.47;;;11.73;;
34711;SDS011;20941;42.408;25.634;2024-02-15T07:08:07;29.55;;;11.48;;
34711;SDS011;20941;42.408;25.634;2024-02-15T07:10:32;26.60;;;10.98;;
34711;SDS011;20941;42.408;25.634;2024-02-15T07:12:58;37.55;;;13.65;;
34711;SDS011;20941;42.408;25.634;2024-02-15T07:15:23;29.38;;;12.65;;
34711;SDS011;20941;42.408;25.634;2024-02-15T07:17:48;29.10;;;10.77;;
34711;SDS011;20941;42.408;25.634;2024-02-15T07:20:14;32.22;;;10.52;;
34711;SDS011;20941;42.408;25.634;2024-02-15T07:22:42;23.65;;;10.40;;
34711;SDS011;20941;42.408;25.634;2024-02-15T07:25:09;22.23;;;10.43;;
34711;SDS011;20941;42.408;25.634;2024-02-15T07:27:35;27.30;;;11.32;;
34711;SDS011;20941;42.408;25.634;2024-02-15T07:30:01;27.38;;;10.93;;
34711;SDS011;20941;42.408;25.634;2024-02-15T07:32:27;26.65;;;8.98;;
34711;SDS011;20941;42.408;25.634;2024-02-15T07:34:52;20.73;;;8.48;;
34711;SDS011;20941;42.408;25.634;2024-02-15T07:37:18;13.43;;;8.07;;
34711;SDS011;20941;42.408;25.634;2024-02-15T07:39:43;20.92;;;8.45;;
34711;SDS011;20941;42.408;25.634;2024-02-15T07:42:09;28.42;;;8.90;;
34711;SDS011;20941;42.408;25.634;2024-02-15T07:44:34;18.23;;;7.85;;
34711;SDS011;20941;42.408;25.634;2024-02-15T07:47:02;30.02;;;8.65;;
34711;SDS011;20941;42.408;25.634;2024-02-15T07:49:28;14.05;;;7.95;;
34711;SDS011;20941;42.408;25.634;2024-02-15T07:51:53;33.35;;;9.60;;
34711;SDS011;20941;42.408;25.634;2024-02-15T07:54:19;19.10;;;9.10;;
34711;SDS011;20941;42.408;25.634;2024-02-15T07:56:48;24.40;;;9.30;;
34711;SDS011;20941;42.408;25.634;2024-02-15T07:59:14;23.08;;;9.68;;
34711;SDS011;20941;42.408;25.634;2024-02-15T08:01:44;25.20;;;9.15;;
34711;SDS011;20941;42.408;25.634;2024-02-15T08:04:12;16.08;;;7.43;;
34711;SDS011;20941;42.408;25.634;2024-02-15T08:06:38;18.00;;;7.55;;
34711;SDS011;20941;42.408;25.634;2024-02-15T08:09:03;17.30;;;7.10;;
34711;SDS011;20941;42.408;25.634;2024-02-15T08:11:32;14.73;;;7.13;;
34711;SDS011;20941;42.408;25.634;2024-02-15T08:13:57;13.23;;;6.85;;
34711;SDS011;20941;42.408;25.634;2024-02-15T08:16:24;25.00;;;6.75;;
34711;SDS011;20941;42.408;25.634;2024-02-15T08:18:52;16.05;;;7.40;;
34711;SDS011;20941;42.408;25.634;2024-02-15T08:21:29;27.35;;;7.80;;
34711;SDS011;20941;42.408;25.634;2024-02-15T08:23:57;13.45;;;7.13;;
34711;SDS011;20941;42.408;25.634;2024-02-15T08:26:23;17.75;;;7.53;;
34711;SDS011;20941;42.408;25.634;2024-02-15T08:28:49;19.15;;;7.30;;
34711;SDS011;20941;42.408;25.634;2024-02-15T08:31:14;15.98;;;6.82;;
34711;SDS011;20941;42.408;25.634;2024-02-15T08:33:45;21.52;;;7.35;;
34711;SDS011;20941;42.408;25.634;2024-02-15T08:36:11;29.08;;;8.05;;
34711;SDS011;20941;42.408;25.634;2024-02-15T08:38:38;23.75;;;9.68;;
34711;SDS011;20941;42.408;25.634;2024-02-15T08:41:04;16.92;;;7.50;;
34711;SDS011;20941;42.408;25.634;2024-02-15T08:43:33;17.33;;;7.63;;
34711;SDS011;20941;42.408;25.634;2024-02-15T08:45:58;17.60;;;7.40;;
34711;SDS011;20941;42.408;25.634;2024-02-15T08:48:24;10.63;;;6.70;;
34711;SDS011;20941;42.408;25.634;2024-02-15T08:50:50;25.55;;;9.15;;
34711;SDS011;20941;42.408;25.634;2024-02-15T08:53:15;15.18;;;7.13;;
34711;SDS011;20941;42.408;25.634;2024-02-15T08:55:41;15.48;;;7.25;;
34711;SDS011;20941;42.408;25.634;2024-02-15T08:58:06;11.57;;;7.22;;
34711;SDS011;20941;42.408;25.634;2024-02-15T09:00:34;9.35;;;6.82;;
34711;SDS011;20941;42.408;25.634;2024-02-15T09:03:00;16.75;;;7.30;;
34711;SDS011;20941;42.408;25.634;2024-02-15T09:05:25;10.82;;;5.88;;
34711;SDS011;20941;42.408;25.634;2024-02-15T09:07:51;17.05;;;7.07;;
34711;SDS011;20941;42.408;25.634;2024-02-15T09:10:16;12.82;;;7.35;;
34711;SDS011;20941;42.408;25.634;2024-02-15T09:12:42;16.45;;;7.10;;
34711;SDS011;20941;42.408;25.634;2024-02-15T09:15:08;12.27;;;5.40;;
34711;SDS011;20941;42.408;25.634;2024-02-15T09:17:34;6.35;;;3.58;;
34711;SDS011;20941;42.408;25.634;2024-02-15T09:20:07;12.52;;;5.80;;
34711;SDS011;20941;42.408;25.634;2024-02-15T09:22:34;2.42;;;1.75;;
34711;SDS011;20941;42.408;25.634;2024-02-15T09:25:01;11.85;;;7.00;;
34711;SDS011;20941;42.408;25.634;2024-02-15T09:27:29;5.35;;;3.55;;
34711;SDS011;20941;42.408;25.634;2024-02-15T09:29:54;6.63;;;4.35;;
34711;SDS011;20941;42.408;25.634;2024-02-15T09:32:21;23.17;;;7.00;;
34711;SDS011;20941;42.408;25.634;2024-02-15T09:34:47;9.48;;;4.78;;
34711;SDS011;20941;42.408;25.634;2024-02-15T09:37:12;8.55;;;4.70;;
34711;SDS011;20941;42.408;25.634;2024-02-15T09:39:39;9.20;;;4.88;;
34711;SDS011;20941;42.408;25.634;2024-02-15T09:42:04;5.93;;;4.35;;
34711;SDS011;20941;42.408;25.634;2024-02-15T09:44:30;11.65;;;8.20;;
34711;SDS011;20941;42.408;25.634;2024-02-15T09:47:04;9.07;;;4.65;;
34711;SDS011;20941;42.408;25.634;2024-02-15T09:49:36;7.15;;;4.07;;
34711;SDS011;20941;42.408;25.634;2024-02-15T09:52:04;3.03;;;1.75;;
34711;SDS011;20941;42.408;25.634;2024-02-15T09:54:41;7.93;;;4.78;;
34711;SDS011;20941;42.408;25.634;2024-02-15T09:57:09;8.57;;;4.15;;
34711;SDS011;20941;42.408;25.634;2024-02-15T09:59:36;8.48;;;4.28;;
34711;SDS011;20941;42.408;25.634;2024-02-15T10:02:03;10.18;;;4.25;;
34711;SDS011;20941;42.408;25.634;2024-02-15T10:04:29;4.70;;;2.05;;
34711;SDS011;20941;42.408;25.634;2024-02-15T10:06:54;6.82;;;4.00;;
34711;SDS011;20941;42.408;25.634;2024-02-15T10:09:29;5.32;;;2.85;;
34711;SDS011;20941;42.408;25.634;2024-02-15T10:11:55;6.60;;;3.95;;
34711;SDS011;20941;42.408;25.634;2024-02-15T10:14:22;4.43;;;2.40;;
34711;SDS011;20941;42.408;25.634;2024-02-15T10:16:47;5.70;;;3.70;;
34711;SDS011;20941;42.408;25.634;2024-02-15T10:19:12;10.98;;;5.90;;
34711;SDS011;20941;42.408;25.634;2024-02-15T10:21:41;14.40;;;5.47;;
34711;SDS011;20941;42.408;25.634;2024-02-15T10:24:06;9.68;;;3.63;;
34711;SDS011;20941;42.408;25.634;2024-02-15T10:26:33;3.53;;;2.08;;
34711;SDS011;20941;42.408;25.634;2024-02-15T10:29:12;9.20;;;4.47;;
34711;SDS011;20941;42.408;25.634;2024-02-15T10:31:40;3.83;;;2.53;;
34711;SDS011;20941;42.408;25.634;2024-02-15T10:34:06;1.73;;;1.40;;
34711;SDS011;20941;42.408;25.634;2024-02-15T10:36:33;7.65;;;3.55;;
34711;SDS011;20941;42.408;25.634;2024-02-15T10:39:15;3.95;;;1.60;;
34711;SDS011;20941;42.408;25.634;2024-02-15T10:44:12;3.78;;;2.97;;
34711;SDS011;20941;42.408;25.634;2024-02-15T10:46:39;8.98;;;5.35;;
34711;SDS011;20941;42.408;25.634;2024-02-15T10:49:06;7.65;;;4.75;;
34711;SDS011;20941;42.408;25.634;2024-02-15T10:51:32;15.38;;;6.63;;
34711;SDS011;20941;42.408;25.634;2024-02-15T10:54:02;9.27;;;4.90;;
34711;SDS011;20941;42.408;25.634;2024-02-15T10:56:33;4.38;;;2.28;;
34711;SDS011;20941;42.408;25.634;2024-02-15T10:59:18;2.00;;;1.65;;
34711;SDS011;20941;42.408;25.634;2024-02-15T11:01:45;10.35;;;3.65;;
34711;SDS011;20941;42.408;25.634;2024-02-15T11:04:15;4.07;;;2.42;;
34711;SDS011;20941;42.408;25.634;2024-02-15T11:06:43;4.97;;;2.72;;
34711;SDS011;20941;42.408;25.634;2024-02-15T11:09:10;5.10;;;2.85;;
34711;SDS011;20941;42.408;25.634;2024-02-15T11:11:40;6.55;;;4.07;;
34711;SDS011;20941;42.408;25.634;2024-02-15T11:16:50;10.70;;;5.05;;
34711;SDS011;20941;42.408;25.634;2024-02-15T11:22:02;3.42;;;2.13;;
34711;SDS011;20941;42.408;25.634;2024-02-15T11:24:37;10.15;;;4.35;;
34711;SDS011;20941;42.408;25.634;2024-02-15T11:27:10;1.98;;;1.50;;
34711;SDS011;20941;42.408;25.634;2024-02-15T11:35:14;4.40;;;3.47;;
34711;SDS011;20941;42.408;25.634;2024-02-15T11:40:15;4.43;;;3.17;;
34711;SDS011;20941;42.408;25.634;2024-02-15T11:42:42;3.25;;;2.10;;
34711;SDS011;20941;42.408;25.634;2024-02-15T11:45:08;13.15;;;7.00;;
34711;SDS011;20941;42.408;25.634;2024-02-15T11:47:36;3.17;;;2.13;;
34711;SDS011;20941;42.408;25.634;2024-02-15T11:50:02;5.40;;;2.30;;
34711;SDS011;20941;42.408;25.634;2024-02-15T11:52:28;5.55;;;2.70;;
34711;SDS011;20941;42.408;25.634;2024-02-15T11:54:53;7.80;;;4.05;;
34711;SDS011;20941;42.408;25.634;2024-02-15T11:57:19;3.28;;;2.17;;
34711;SDS011;20941;42.408;25.634;2024-02-15T12:00:04;7.32;;;3.63;;
34711;SDS011;20941;42.408;25.634;2024-02-15T12:02:48;5.80;;;2.35;;
34711;SDS011;20941;42.408;25.634;2024-02-15T12:05:37;4.38;;;2.58;;
34711;SDS011;20941;42.408;25.634;2024-02-15T12:08:35;5.47;;;1.92;;
34711;SDS011;20941;42.408;25.634;2024-02-15T12:11:19;4.20;;;3.10;;
34711;SDS011;20941;42.408;25.634;2024-02-15T12:17:09;6.97;;;3.13;;
34711;SDS011;20941;42.408;25.634;2024-02-15T12:19:53;6.53;;;3.30;;
34711;SDS011;20941;42.408;25.634;2024-02-15T12:22:28;3.75;;;2.78;;
34711;SDS011;20941;42.408;25.634;2024-02-15T12:24:57;5.05;;;3.47;;
34711;SDS011;20941;42.408;25.634;2024-02-15T12:27:23;5.43;;;3.30;;
34711;SDS011;20941;42.408;25.634;2024-02-15T12:29:52;13.63;;;4.65;;
34711;SDS011;20941;42.408;25.634;2024-02-15T12:32:21;2.72;;;1.25;;
34711;SDS011;20941;42.408;25.634;2024-02-15T12:34:47;2.67;;;1.77;;
34711;SDS011;20941;42.408;25.634;2024-02-15T12:37:12;4.00;;;2.00;;
34711;SDS011;20941;42.408;25.634;2024-02-15T12:39:42;5.63;;;3.10;;
34711;SDS011;20941;42.408;25.634;2024-02-15T12:42:08;4.60;;;2.08;;
34711;SDS011;20941;42.408;25.634;2024-02-15T12:44:35;3.47;;;2.50;;
34711;SDS011;20941;42.408;25.634;2024-02-15T12:47:04;15.48;;;8.70;;
34711;SDS011;20941;42.408;25.634;2024-02-15T12:49:31;8.45;;;3.53;;
34711;SDS011;20941;42.408;25.634;2024-02-15T12:52:39;2.95;;;2.30;;
34711;SDS011;20941;42.408;25.634;2024-02-15T12:54:45;9.20;;;4.88;;
34711;SDS011;20941;42.408;25.634;2024-02-15T12:57:11;7.78;;;3.15;;
34711;SDS011;20941;42.408;25.634;2024-02-15T12:59:39;4.70;;;2.83;;
34711;SDS011;20941;42.408;25.634;2024-02-15T13:02:04;2.33;;;1.20;;
34711;SDS011;20941;42.408;25.634;2024-02-15T13:04:30;4.60;;;3.08;;
34711;SDS011;20941;42.408;25.634;2024-02-15T13:06:56;8.10;;;3.55;;
34711;SDS011;20941;42.408;25.634;2024-02-15T13:11:49;6.40;;;2.78;;
34711;SDS011;20941;42.408;25.634;2024-02-15T13:14:17;9.00;;;4.07;;
34711;SDS011;20941;42.408;25.634;2024-02-15T13:16:43;21.83;;;5.75;;
34711;SDS011;20941;42.408;25.634;2024-02-15T13:19:09;9.40;;;3.72;;
34711;SDS011;20941;42.408;25.634;2024-02-15T13:21:35;11.57;;;4.10;;
34711;SDS011;20941;42.408;25.634;2024-02-15T13:24:00;5.40;;;3.00;;
34711;SDS011;20941;42.408;25.634;2024-02-15T13:26:32;9.65;;;3.40;;
34711;SDS011;20941;42.408;25.634;2024-02-15T13:28:59;11.40;;;4.75;;
34711;SDS011;20941;42.408;25.634;2024-02-15T13:31:24;9.25;;;3.47;;
34711;SDS011;20941;42.408;25.634;2024-02-15T13:33:52;6.38;;;2.30;;
34711;SDS011;20941;42.408;25.634;2024-02-15T13:36:17;12.70;;;3.35;;
34711;SDS011;20941;42.408;25.634;2024-02-15T13:38:45;4.40;;;2.70;;
34711;SDS011;20941;42.408;25.634;2024-02-15T13:41:10;2.58;;;1.70;;
34711;SDS011;20941;42.408;25.634;2024-02-15T13:43:36;6.38;;;2.53;;
34711;SDS011;20941;42.408;25.634;2024-02-15T13:46:03;7.03;;;3.42;;
34711;SDS011;20941;42.408;25.634;2024-02-15T13:48:30;14.90;;;3.95;;
34711;SDS011;20941;42.408;25.634;2024-02-15T13:50:55;6.90;;;2.70;;
34711;SDS011;20941;42.408;25.634;2024-02-15T13:53:21;6.00;;;2.95;;
34711;SDS011;20941;42.408;25.634;2024-02-15T13:55:47;3.88;;;2.28;;
34711;SDS011;20941;42.408;25.634;2024-02-15T13:58:13;5.18;;;2.90;;
34711;SDS011;20941;42.408;25.634;2024-02-15T14:00:39;7.28;;;3.25;;
34711;SDS011;20941;42.408;25.634;2024-02-15T14:03:07;4.40;;;2.25;;
34711;SDS011;20941;42.408;25.634;2024-02-15T14:05:35;4.57;;;2.45;;
34711;SDS011;20941;42.408;25.634;2024-02-15T14:08:01;88.32;;;19.33;;
34711;SDS011;20941;42.408;25.634;2024-02-15T14:10:30;10.27;;;3.35;;
34711;SDS011;20941;42.408;25.634;2024-02-15T14:12:56;7.40;;;4.50;;
34711;SDS011;20941;42.408;25.634;2024-02-15T14:15:25;7.22;;;3.33;;
34711;SDS011;20941;42.408;25.634;2024-02-15T14:17:51;7.05;;;3.80;;
34711;SDS011;20941;42.408;25.634;2024-02-15T14:20:16;17.58;;;6.38;;
34711;SDS011;20941;42.408;25.634;2024-02-15T14:22:44;6.80;;;2.95;;
34711;SDS011;20941;42.408;25.634;2024-02-15T14:25:09;17.75;;;5.20;;
34711;SDS011;20941;42.408;25.634;2024-02-15T14:27:37;8.23;;;3.38;;
34711;SDS011;20941;42.408;25.634;2024-02-15T14:30:03;10.40;;;5.07;;
34711;SDS011;20941;42.408;25.634;2024-02-15T14:32:48;6.35;;;2.50;;
34711;SDS011;20941;42.408;25.634;2024-02-15T14:35:32;125.57;;;27.20;;
34711;SDS011;20941;42.408;25.634;2024-02-15T14:38:01;10.48;;;4.05;;
34711;SDS011;20941;42.408;25.634;2024-02-15T14:40:28;5.38;;;2.17;;
34711;SDS011;20941;42.408;25.634;2024-02-15T14:42:53;8.98;;;2.70;;
34711;SDS011;20941;42.408;25.634;2024-02-15T14:45:19;137.00;;;26.65;;
34711;SDS011;20941;42.408;25.634;2024-02-15T14:47:45;23.67;;;6.45;;